This is the latest recevied weather packets stored in our database for station/object OE3KJN-13. If no packets are shown the sender has not sent any weather packets the latest 1 day(s).
| Time | Temp. | Humidity | Pressure | Rain* | Wind** | Luminosity | Snow |
|---|---|---|---|---|---|---|---|
| 1778003644 | 21.67° C | 100% | 0 hPa | 0 mm | 2.68 m/s, 244° | - | - |
| 1778003344 | 22.22° C | 100% | 0 hPa | 0 mm | 4.92 m/s, 271° | - | - |
| 1778003044 | 22.22° C | 100% | 0 hPa | 0 mm | 1.79 m/s, 285° | - | - |
| 1778002744 | 22.22° C | 100% | 0 hPa | 0 mm | 2.24 m/s, 277° | - | - |
| 1778002443 | 22.22° C | 100% | 0 hPa | 0 mm | 4.92 m/s, 244° | - | - |
| 1778002143 | 22.78° C | 100% | 0 hPa | 0 mm | 5.36 m/s, 261° | - | - |
| 1778001843 | 22.78° C | 100% | 0 hPa | 0 mm | 3.58 m/s, 278° | - | - |
| 1778001542 | 22.78° C | 100% | 0 hPa | 0 mm | 5.36 m/s, 265° | - | - |
| 1778001242 | 22.78° C | 100% | 0 hPa | 0 mm | 1.34 m/s, 26° | - | - |
| 1778000942 | 22.78° C | 100% | 0 hPa | 0 mm | 4.47 m/s, 257° | - | - |
| 1778000642 | 23.33° C | 100% | 0 hPa | 0 mm | 3.58 m/s, 270° | - | - |
| 1778000341 | 23.89° C | 100% | 0 hPa | 0 mm | 3.13 m/s, 302° | - | - |
| 1778000041 | 23.33° C | 100% | 0 hPa | 0 mm | 2.68 m/s, 288° | - | - |
| 1777999741 | 23.89° C | 100% | 0 hPa | 0 mm | 3.13 m/s, 284° | - | - |
| 1777999440 | 23.89° C | 100% | 0 hPa | 0 mm | 3.58 m/s, 286° | - | - |
| 1777999140 | 23.89° C | 100% | 0 hPa | 0 mm | 4.02 m/s, 284° | - | - |
| 1777998840 | 24.44° C | 100% | 0 hPa | 0 mm | 1.34 m/s, 161° | - | - |
| 1777998539 | 24.44° C | 100% | 0 hPa | 0 mm | 4.47 m/s, 275° | - | - |
| 1777998239 | 24.44° C | 100% | 0 hPa | 0 mm | 7.6 m/s, 262° | - | - |
| 1777997939 | 24.44° C | 100% | 0 hPa | 0 mm | 5.36 m/s, 282° | - | - |
| 1777997639 | 24.44° C | 100% | 0 hPa | 0 mm | 2.24 m/s, 270° | - | - |
| 1777997338 | 24.44° C | 100% | 0 hPa | 0 mm | 4.92 m/s, 240° | - | - |
| 1777997038 | 24.44° C | 100% | 0 hPa | 0 mm | 8.05 m/s, 286° | - | - |
| 1777996738 | 25° C | 100% | 0 hPa | 0 mm | 6.26 m/s, 302° | - | - |
| 1777996437 | 25° C | 100% | 0 hPa | 0 mm | 6.26 m/s, 265° | - | - |
* Rain latest hour (hover to see other rain measurements)
** Current wind speed in m/s (hover to see current wind gust speed)